sensor_id;sensor_type;location;lat;lon;timestamp;P1;durP1;ratioP1;P2;durP2;ratioP2
70335;SDS011;57756;47.408;18.940;2023-05-20T00:00:07;0.40;;;0.17;;
70335;SDS011;57756;47.408;18.940;2023-05-20T00:02:33;0.50;;;0.17;;
70335;SDS011;57756;47.408;18.940;2023-05-20T00:04:59;0.88;;;0.75;;
70335;SDS011;57756;47.408;18.940;2023-05-20T00:07:25;0.40;;;0.13;;
70335;SDS011;57756;47.408;18.940;2023-05-20T00:09:50;0.90;;;0.52;;
70335;SDS011;57756;47.408;18.940;2023-05-20T00:12:16;0.47;;;0.10;;
70335;SDS011;57756;47.408;18.940;2023-05-20T00:14:41;0.95;;;0.43;;
70335;SDS011;57756;47.408;18.940;2023-05-20T00:17:07;0.50;;;0.10;;
70335;SDS011;57756;47.408;18.940;2023-05-20T00:19:32;0.27;;;0.10;;
70335;SDS011;57756;47.408;18.940;2023-05-20T00:21:58;0.40;;;0.20;;
70335;SDS011;57756;47.408;18.940;2023-05-20T00:24:24;0.77;;;0.33;;
70335;SDS011;57756;47.408;18.940;2023-05-20T00:26:49;0.60;;;0.37;;
70335;SDS011;57756;47.408;18.940;2023-05-20T00:29:15;0.88;;;0.55;;
70335;SDS011;57756;47.408;18.940;2023-05-20T00:31:40;0.50;;;0.30;;
70335;SDS011;57756;47.408;18.940;2023-05-20T00:34:06;0.47;;;0.28;;
70335;SDS011;57756;47.408;18.940;2023-05-20T00:36:32;0.73;;;0.50;;
70335;SDS011;57756;47.408;18.940;2023-05-20T00:38:58;0.60;;;0.23;;
70335;SDS011;57756;47.408;18.940;2023-05-20T00:41:24;0.40;;;0.25;;
70335;SDS011;57756;47.408;18.940;2023-05-20T00:43:53;0.30;;;0.10;;
70335;SDS011;57756;47.408;18.940;2023-05-20T00:46:19;0.85;;;0.50;;
70335;SDS011;57756;47.408;18.940;2023-05-20T00:48:45;0.40;;;0.20;;
70335;SDS011;57756;47.408;18.940;2023-05-20T00:51:12;0.80;;;0.40;;
70335;SDS011;57756;47.408;18.940;2023-05-20T00:53:38;0.23;;;0.07;;
70335;SDS011;57756;47.408;18.940;2023-05-20T00:56:04;0.40;;;0.17;;
70335;SDS011;57756;47.408;18.940;2023-05-20T00:58:30;0.90;;;0.75;;
70335;SDS011;57756;47.408;18.940;2023-05-20T01:00:56;1.85;;;0.68;;
70335;SDS011;57756;47.408;18.940;2023-05-20T01:03:21;0.30;;;0.10;;
70335;SDS011;57756;47.408;18.940;2023-05-20T01:05:47;0.70;;;0.33;;
70335;SDS011;57756;47.408;18.940;2023-05-20T01:08:12;0.40;;;0.20;;
70335;SDS011;57756;47.408;18.940;2023-05-20T01:10:39;0.80;;;0.60;;
70335;SDS011;57756;47.408;18.940;2023-05-20T01:13:10;0.95;;;0.57;;
70335;SDS011;57756;47.408;18.940;2023-05-20T01:15:39;0.47;;;0.28;;
70335;SDS011;57756;47.408;18.940;2023-05-20T01:18:07;0.77;;;0.27;;
70335;SDS011;57756;47.408;18.940;2023-05-20T01:20:34;0.40;;;0.20;;
70335;SDS011;57756;47.408;18.940;2023-05-20T01:23:02;0.93;;;0.70;;
70335;SDS011;57756;47.408;18.940;2023-05-20T01:25:28;0.70;;;0.50;;
70335;SDS011;57756;47.408;18.940;2023-05-20T01:27:54;0.83;;;0.40;;
70335;SDS011;57756;47.408;18.940;2023-05-20T01:30:25;1.02;;;0.47;;
70335;SDS011;57756;47.408;18.940;2023-05-20T01:32:57;4.25;;;0.60;;
70335;SDS011;57756;47.408;18.940;2023-05-20T01:35:26;0.30;;;0.10;;
70335;SDS011;57756;47.408;18.940;2023-05-20T01:37:54;0.75;;;0.68;;
70335;SDS011;57756;47.408;18.940;2023-05-20T01:40:22;0.57;;;0.30;;
70335;SDS011;57756;47.408;18.940;2023-05-20T01:42:49;0.98;;;0.77;;
70335;SDS011;57756;47.408;18.940;2023-05-20T01:45:19;0.63;;;0.35;;
70335;SDS011;57756;47.408;18.940;2023-05-20T01:47:45;0.20;;;0.10;;
70335;SDS011;57756;47.408;18.940;2023-05-20T01:50:10;0.40;;;0.20;;
70335;SDS011;57756;47.408;18.940;2023-05-20T01:52:36;0.50;;;0.30;;
70335;SDS011;57756;47.408;18.940;2023-05-20T01:55:01;0.60;;;0.45;;
70335;SDS011;57756;47.408;18.940;2023-05-20T01:57:27;0.47;;;0.27;;
70335;SDS011;57756;47.408;18.940;2023-05-20T01:59:53;0.60;;;0.30;;
70335;SDS011;57756;47.408;18.940;2023-05-20T02:02:18;1.00;;;0.37;;
70335;SDS011;57756;47.408;18.940;2023-05-20T02:04:44;0.43;;;0.23;;
70335;SDS011;57756;47.408;18.940;2023-05-20T02:07:13;1.35;;;0.98;;
70335;SDS011;57756;47.408;18.940;2023-05-20T02:09:39;1.35;;;0.50;;
70335;SDS011;57756;47.408;18.940;2023-05-20T02:12:06;0.52;;;0.35;;
70335;SDS011;57756;47.408;18.940;2023-05-20T02:14:32;0.43;;;0.20;;
70335;SDS011;57756;47.408;18.940;2023-05-20T02:16:57;4.82;;;0.55;;
70335;SDS011;57756;47.408;18.940;2023-05-20T02:19:23;0.50;;;0.10;;
70335;SDS011;57756;47.408;18.940;2023-05-20T02:21:48;1.83;;;0.67;;
70335;SDS011;57756;47.408;18.940;2023-05-20T02:24:14;0.50;;;0.20;;
70335;SDS011;57756;47.408;18.940;2023-05-20T02:26:40;0.85;;;0.43;;
70335;SDS011;57756;47.408;18.940;2023-05-20T02:29:06;0.80;;;0.40;;
70335;SDS011;57756;47.408;18.940;2023-05-20T02:31:32;0.90;;;0.50;;
70335;SDS011;57756;47.408;18.940;2023-05-20T02:33:57;0.57;;;0.37;;
70335;SDS011;57756;47.408;18.940;2023-05-20T02:36:23;1.02;;;0.93;;
70335;SDS011;57756;47.408;18.940;2023-05-20T02:38:48;1.50;;;0.50;;
70335;SDS011;57756;47.408;18.940;2023-05-20T02:41:15;0.45;;;0.20;;
70335;SDS011;57756;47.408;18.940;2023-05-20T02:43:40;0.57;;;0.30;;
70335;SDS011;57756;47.408;18.940;2023-05-20T02:46:06;0.40;;;0.10;;
70335;SDS011;57756;47.408;18.940;2023-05-20T02:48:31;0.30;;;0.05;;
70335;SDS011;57756;47.408;18.940;2023-05-20T02:50:59;0.70;;;0.50;;
70335;SDS011;57756;47.408;18.940;2023-05-20T02:53:25;0.73;;;0.38;;
70335;SDS011;57756;47.408;18.940;2023-05-20T02:55:51;0.30;;;0.13;;
70335;SDS011;57756;47.408;18.940;2023-05-20T02:58:16;0.22;;;0.05;;
70335;SDS011;57756;47.408;18.940;2023-05-20T03:00:42;1.30;;;0.87;;
70335;SDS011;57756;47.408;18.940;2023-05-20T03:03:07;0.93;;;0.60;;
70335;SDS011;57756;47.408;18.940;2023-05-20T03:05:38;1.58;;;0.35;;
70335;SDS011;57756;47.408;18.940;2023-05-20T03:08:09;0.40;;;0.10;;
70335;SDS011;57756;47.408;18.940;2023-05-20T03:10:36;0.52;;;0.35;;
70335;SDS011;57756;47.408;18.940;2023-05-20T03:13:03;0.60;;;0.33;;
70335;SDS011;57756;47.408;18.940;2023-05-20T03:15:29;0.55;;;0.35;;
70335;SDS011;57756;47.408;18.940;2023-05-20T03:17:54;1.10;;;0.50;;
70335;SDS011;57756;47.408;18.940;2023-05-20T03:20:20;0.30;;;0.10;;
70335;SDS011;57756;47.408;18.940;2023-05-20T03:22:45;0.40;;;0.20;;
70335;SDS011;57756;47.408;18.940;2023-05-20T03:25:11;0.30;;;0.10;;
70335;SDS011;57756;47.408;18.940;2023-05-20T03:27:37;0.43;;;0.10;;
70335;SDS011;57756;47.408;18.940;2023-05-20T03:30:02;0.77;;;0.50;;
70335;SDS011;57756;47.408;18.940;2023-05-20T03:32:29;0.55;;;0.30;;
70335;SDS011;57756;47.408;18.940;2023-05-20T03:34:54;0.77;;;0.47;;
70335;SDS011;57756;47.408;18.940;2023-05-20T03:37:22;0.40;;;0.20;;
70335;SDS011;57756;47.408;18.940;2023-05-20T03:39:47;0.50;;;0.38;;
70335;SDS011;57756;47.408;18.940;2023-05-20T03:42:13;0.60;;;0.37;;
70335;SDS011;57756;47.408;18.940;2023-05-20T03:44:38;0.23;;;0.07;;
70335;SDS011;57756;47.408;18.940;2023-05-20T03:47:04;0.43;;;0.17;;
70335;SDS011;57756;47.408;18.940;2023-05-20T03:49:30;0.55;;;0.25;;
70335;SDS011;57756;47.408;18.940;2023-05-20T03:51:55;0.87;;;0.40;;
70335;SDS011;57756;47.408;18.940;2023-05-20T03:54:20;0.30;;;0.10;;
70335;SDS011;57756;47.408;18.940;2023-05-20T03:56:46;0.53;;;0.30;;
70335;SDS011;57756;47.408;18.940;2023-05-20T03:59:13;0.90;;;0.60;;
70335;SDS011;57756;47.408;18.940;2023-05-20T04:01:38;1.67;;;0.70;;
70335;SDS011;57756;47.408;18.940;2023-05-20T04:04:04;0.93;;;0.40;;
70335;SDS011;57756;47.408;18.940;2023-05-20T04:06:30;0.25;;;0.10;;
70335;SDS011;57756;47.408;18.940;2023-05-20T04:08:56;0.63;;;0.30;;
70335;SDS011;57756;47.408;18.940;2023-05-20T04:11:22;0.27;;;0.07;;
70335;SDS011;57756;47.408;18.940;2023-05-20T04:13:48;0.40;;;0.10;;
70335;SDS011;57756;47.408;18.940;2023-05-20T04:16:13;0.40;;;0.20;;
70335;SDS011;57756;47.408;18.940;2023-05-20T04:18:39;0.30;;;0.10;;
70335;SDS011;57756;47.408;18.940;2023-05-20T04:21:05;0.40;;;0.20;;
70335;SDS011;57756;47.408;18.940;2023-05-20T04:23:30;0.40;;;0.10;;
70335;SDS011;57756;47.408;18.940;2023-05-20T04:25:56;0.57;;;0.40;;
70335;SDS011;57756;47.408;18.940;2023-05-20T04:28:26;0.95;;;0.73;;
70335;SDS011;57756;47.408;18.940;2023-05-20T04:30:58;0.60;;;0.30;;
70335;SDS011;57756;47.408;18.940;2023-05-20T04:33:26;0.32;;;0.10;;
70335;SDS011;57756;47.408;18.940;2023-05-20T04:35:57;0.40;;;0.20;;
70335;SDS011;57756;47.408;18.940;2023-05-20T04:38:26;0.40;;;0.20;;
70335;SDS011;57756;47.408;18.940;2023-05-20T04:40:56;0.47;;;0.17;;
70335;SDS011;57756;47.408;18.940;2023-05-20T04:43:25;0.30;;;0.10;;
70335;SDS011;57756;47.408;18.940;2023-05-20T04:45:54;0.63;;;0.28;;
70335;SDS011;57756;47.408;18.940;2023-05-20T04:48:23;0.98;;;0.52;;
70335;SDS011;57756;47.408;18.940;2023-05-20T04:50:49;0.68;;;0.52;;
70335;SDS011;57756;47.408;18.940;2023-05-20T04:53:16;0.30;;;0.10;;
70335;SDS011;57756;47.408;18.940;2023-05-20T04:55:42;0.30;;;0.10;;
70335;SDS011;57756;47.408;18.940;2023-05-20T04:58:08;0.70;;;0.45;;
70335;SDS011;57756;47.408;18.940;2023-05-20T05:00:40;0.40;;;0.20;;
70335;SDS011;57756;47.408;18.940;2023-05-20T05:03:06;0.63;;;0.35;;
70335;SDS011;57756;47.408;18.940;2023-05-20T05:05:33;1.07;;;0.47;;
70335;SDS011;57756;47.408;18.940;2023-05-20T05:08:01;0.60;;;0.35;;
70335;SDS011;57756;47.408;18.940;2023-05-20T05:10:30;0.82;;;0.40;;
70335;SDS011;57756;47.408;18.940;2023-05-20T05:12:56;0.40;;;0.17;;
70335;SDS011;57756;47.408;18.940;2023-05-20T05:15:22;0.70;;;0.40;;
70335;SDS011;57756;47.408;18.940;2023-05-20T05:17:48;0.30;;;0.10;;
70335;SDS011;57756;47.408;18.940;2023-05-20T05:20:13;0.63;;;0.57;;
70335;SDS011;57756;47.408;18.940;2023-05-20T05:22:39;0.50;;;0.20;;
70335;SDS011;57756;47.408;18.940;2023-05-20T05:25:06;0.65;;;0.32;;
70335;SDS011;57756;47.408;18.940;2023-05-20T05:27:32;0.77;;;0.50;;
70335;SDS011;57756;47.408;18.940;2023-05-20T05:29:57;1.23;;;0.73;;
70335;SDS011;57756;47.408;18.940;2023-05-20T05:32:23;0.95;;;0.40;;
70335;SDS011;57756;47.408;18.940;2023-05-20T05:34:49;0.50;;;0.30;;
70335;SDS011;57756;47.408;18.940;2023-05-20T05:37:14;0.40;;;0.10;;
70335;SDS011;57756;47.408;18.940;2023-05-20T05:39:40;1.25;;;0.30;;
70335;SDS011;57756;47.408;18.940;2023-05-20T05:42:05;1.53;;;1.00;;
70335;SDS011;57756;47.408;18.940;2023-05-20T05:44:31;0.47;;;0.17;;
70335;SDS011;57756;47.408;18.940;2023-05-20T05:46:56;1.00;;;0.40;;
70335;SDS011;57756;47.408;18.940;2023-05-20T05:49:22;1.92;;;0.40;;
70335;SDS011;57756;47.408;18.940;2023-05-20T05:51:48;0.97;;;0.63;;
70335;SDS011;57756;47.408;18.940;2023-05-20T05:54:14;0.93;;;0.40;;
70335;SDS011;57756;47.408;18.940;2023-05-20T05:56:40;2.03;;;0.57;;
70335;SDS011;57756;47.408;18.940;2023-05-20T05:59:05;0.80;;;0.47;;
70335;SDS011;57756;47.408;18.940;2023-05-20T06:01:31;1.83;;;0.53;;
70335;SDS011;57756;47.408;18.940;2023-05-20T06:03:57;0.60;;;0.20;;
70335;SDS011;57756;47.408;18.940;2023-05-20T06:06:22;1.23;;;0.70;;
70335;SDS011;57756;47.408;18.940;2023-05-20T06:08:48;0.80;;;0.40;;
70335;SDS011;57756;47.408;18.940;2023-05-20T06:11:13;2.10;;;1.37;;
70335;SDS011;57756;47.408;18.940;2023-05-20T06:13:39;2.47;;;0.57;;
70335;SDS011;57756;47.408;18.940;2023-05-20T06:16:05;0.80;;;0.50;;
70335;SDS011;57756;47.408;18.940;2023-05-20T06:18:30;0.98;;;0.80;;
70335;SDS011;57756;47.408;18.940;2023-05-20T06:20:56;0.83;;;0.50;;
70335;SDS011;57756;47.408;18.940;2023-05-20T06:23:22;1.13;;;0.65;;
70335;SDS011;57756;47.408;18.940;2023-05-20T06:25:48;2.77;;;1.37;;
70335;SDS011;57756;47.408;18.940;2023-05-20T06:28:14;1.08;;;0.73;;
70335;SDS011;57756;47.408;18.940;2023-05-20T06:30:40;1.40;;;1.00;;
70335;SDS011;57756;47.408;18.940;2023-05-20T06:33:06;0.93;;;0.57;;
70335;SDS011;57756;47.408;18.940;2023-05-20T06:35:31;5.27;;;1.00;;
70335;SDS011;57756;47.408;18.940;2023-05-20T06:38:00;1.65;;;0.65;;
70335;SDS011;57756;47.408;18.940;2023-05-20T06:40:26;1.05;;;0.57;;
70335;SDS011;57756;47.408;18.940;2023-05-20T06:42:54;2.05;;;1.17;;
70335;SDS011;57756;47.408;18.940;2023-05-20T06:45:19;0.70;;;0.37;;
70335;SDS011;57756;47.408;18.940;2023-05-20T06:47:46;2.80;;;0.95;;
70335;SDS011;57756;47.408;18.940;2023-05-20T06:50:13;0.85;;;0.30;;
70335;SDS011;57756;47.408;18.940;2023-05-20T06:52:39;1.55;;;0.55;;
70335;SDS011;57756;47.408;18.940;2023-05-20T06:55:04;0.90;;;0.40;;
70335;SDS011;57756;47.408;18.940;2023-05-20T06:57:30;1.55;;;0.65;;
70335;SDS011;57756;47.408;18.940;2023-05-20T06:59:56;3.15;;;0.80;;
70335;SDS011;57756;47.408;18.940;2023-05-20T07:02:22;2.90;;;0.70;;
70335;SDS011;57756;47.408;18.940;2023-05-20T07:04:49;1.55;;;0.95;;
70335;SDS011;57756;47.408;18.940;2023-05-20T07:07:15;2.53;;;1.10;;
70335;SDS011;57756;47.408;18.940;2023-05-20T07:09:41;1.73;;;1.23;;
70335;SDS011;57756;47.408;18.940;2023-05-20T07:12:07;1.07;;;0.50;;
70335;SDS011;57756;47.408;18.940;2023-05-20T07:14:32;1.00;;;0.60;;
70335;SDS011;57756;47.408;18.940;2023-05-20T07:16:58;1.30;;;0.80;;
70335;SDS011;57756;47.408;18.940;2023-05-20T07:19:23;1.60;;;0.63;;
70335;SDS011;57756;47.408;18.940;2023-05-20T07:21:49;2.75;;;0.85;;
70335;SDS011;57756;47.408;18.940;2023-05-20T07:24:17;1.80;;;0.83;;
70335;SDS011;57756;47.408;18.940;2023-05-20T07:26:43;2.05;;;1.08;;
70335;SDS011;57756;47.408;18.940;2023-05-20T07:29:08;1.00;;;0.63;;
70335;SDS011;57756;47.408;18.940;2023-05-20T07:31:34;1.10;;;0.70;;
70335;SDS011;57756;47.408;18.940;2023-05-20T07:34:00;1.73;;;0.93;;
70335;SDS011;57756;47.408;18.940;2023-05-20T07:36:26;2.55;;;0.60;;
70335;SDS011;57756;47.408;18.940;2023-05-20T07:38:52;1.63;;;0.95;;
70335;SDS011;57756;47.408;18.940;2023-05-20T07:41:17;1.40;;;0.80;;
70335;SDS011;57756;47.408;18.940;2023-05-20T07:43:44;1.60;;;0.63;;
70335;SDS011;57756;47.408;18.940;2023-05-20T07:46:10;1.05;;;0.57;;
70335;SDS011;57756;47.408;18.940;2023-05-20T07:48:35;1.70;;;0.80;;
70335;SDS011;57756;47.408;18.940;2023-05-20T07:51:01;1.33;;;0.70;;
70335;SDS011;57756;47.408;18.940;2023-05-20T07:53:26;1.43;;;0.70;;
70335;SDS011;57756;47.408;18.940;2023-05-20T07:55:52;1.20;;;0.75;;
70335;SDS011;57756;47.408;18.940;2023-05-20T07:58:18;1.53;;;0.83;;
70335;SDS011;57756;47.408;18.940;2023-05-20T08:00:43;1.27;;;0.97;;
70335;SDS011;57756;47.408;18.940;2023-05-20T08:03:09;3.30;;;1.53;;
70335;SDS011;57756;47.408;18.940;2023-05-20T08:05:35;2.00;;;0.73;;
70335;SDS011;57756;47.408;18.940;2023-05-20T08:08:02;0.98;;;0.63;;
70335;SDS011;57756;47.408;18.940;2023-05-20T08:10:27;1.38;;;0.52;;
70335;SDS011;57756;47.408;18.940;2023-05-20T08:12:53;1.30;;;1.00;;
70335;SDS011;57756;47.408;18.940;2023-05-20T08:15:18;4.13;;;0.90;;
70335;SDS011;57756;47.408;18.940;2023-05-20T08:17:44;3.53;;;1.20;;
70335;SDS011;57756;47.408;18.940;2023-05-20T08:20:10;2.03;;;0.85;;
70335;SDS011;57756;47.408;18.940;2023-05-20T08:22:36;1.90;;;0.85;;
70335;SDS011;57756;47.408;18.940;2023-05-20T08:25:02;8.00;;;0.97;;
70335;SDS011;57756;47.408;18.940;2023-05-20T08:27:28;2.60;;;1.17;;
70335;SDS011;57756;47.408;18.940;2023-05-20T08:29:54;1.17;;;0.63;;
70335;SDS011;57756;47.408;18.940;2023-05-20T08:32:19;1.73;;;0.93;;
70335;SDS011;57756;47.408;18.940;2023-05-20T08:34:45;2.03;;;0.90;;
70335;SDS011;57756;47.408;18.940;2023-05-20T08:37:10;3.17;;;1.40;;
70335;SDS011;57756;47.408;18.940;2023-05-20T08:39:35;1.92;;;1.10;;
70335;SDS011;57756;47.408;18.940;2023-05-20T08:42:01;2.10;;;1.40;;
70335;SDS011;57756;47.408;18.940;2023-05-20T08:44:27;1.73;;;0.82;;
70335;SDS011;57756;47.408;18.940;2023-05-20T08:46:54;1.00;;;0.60;;
70335;SDS011;57756;47.408;18.940;2023-05-20T08:49:20;1.57;;;0.67;;
70335;SDS011;57756;47.408;18.940;2023-05-20T08:51:46;1.17;;;0.63;;
70335;SDS011;57756;47.408;18.940;2023-05-20T08:54:13;1.67;;;0.90;;
70335;SDS011;57756;47.408;18.940;2023-05-20T08:56:40;1.85;;;1.38;;
70335;SDS011;57756;47.408;18.940;2023-05-20T08:59:07;1.90;;;1.13;;
70335;SDS011;57756;47.408;18.940;2023-05-20T09:01:34;2.50;;;0.95;;
70335;SDS011;57756;47.408;18.940;2023-05-20T09:04:05;2.40;;;1.88;;
70335;SDS011;57756;47.408;18.940;2023-05-20T09:06:41;1.65;;;1.20;;
70335;SDS011;57756;47.408;18.940;2023-05-20T09:09:13;1.63;;;0.93;;
70335;SDS011;57756;47.408;18.940;2023-05-20T09:11:40;2.33;;;1.20;;
70335;SDS011;57756;47.408;18.940;2023-05-20T09:14:06;1.83;;;1.00;;
70335;SDS011;57756;47.408;18.940;2023-05-20T09:16:32;2.28;;;1.10;;
70335;SDS011;57756;47.408;18.940;2023-05-20T09:18:58;2.00;;;1.30;;
70335;SDS011;57756;47.408;18.940;2023-05-20T09:21:33;1.58;;;0.88;;
70335;SDS011;57756;47.408;18.940;2023-05-20T09:24:00;1.85;;;1.25;;
70335;SDS011;57756;47.408;18.940;2023-05-20T09:26:27;1.97;;;1.43;;
70335;SDS011;57756;47.408;18.940;2023-05-20T09:28:57;2.92;;;1.58;;
70335;SDS011;57756;47.408;18.940;2023-05-20T09:31:32;1.52;;;0.85;;
70335;SDS011;57756;47.408;18.940;2023-05-20T09:34:01;1.85;;;1.38;;
70335;SDS011;57756;47.408;18.940;2023-05-20T09:36:28;2.03;;;1.48;;
70335;SDS011;57756;47.408;18.940;2023-05-20T09:38:59;2.13;;;1.30;;
70335;SDS011;57756;47.408;18.940;2023-05-20T09:41:41;2.33;;;1.20;;
70335;SDS011;57756;47.408;18.940;2023-05-20T09:44:19;2.55;;;1.27;;
70335;SDS011;57756;47.408;18.940;2023-05-20T09:46:46;2.35;;;1.33;;
70335;SDS011;57756;47.408;18.940;2023-05-20T09:49:13;2.10;;;1.52;;
70335;SDS011;57756;47.408;18.940;2023-05-20T09:51:40;1.33;;;0.83;;
70335;SDS011;57756;47.408;18.940;2023-05-20T09:54:08;2.15;;;1.00;;
70335;SDS011;57756;47.408;18.940;2023-05-20T09:56:35;1.67;;;1.05;;
70335;SDS011;57756;47.408;18.940;2023-05-20T09:59:01;1.35;;;0.85;;
70335;SDS011;57756;47.408;18.940;2023-05-20T10:01:29;2.17;;;1.27;;
70335;SDS011;57756;47.408;18.940;2023-05-20T10:03:54;1.47;;;1.03;;
70335;SDS011;57756;47.408;18.940;2023-05-20T10:17:30;1.50;;;1.02;;
70335;SDS011;57756;47.408;18.940;2023-05-20T10:20:22;2.00;;;1.00;;
70335;SDS011;57756;47.408;18.940;2023-05-20T10:22:57;1.83;;;1.08;;
70335;SDS011;57756;47.408;18.940;2023-05-20T10:25:23;2.38;;;1.10;;
70335;SDS011;57756;47.408;18.940;2023-05-20T10:27:50;3.13;;;1.07;;
70335;SDS011;57756;47.408;18.940;2023-05-20T10:30:17;1.48;;;1.02;;
70335;SDS011;57756;47.408;18.940;2023-05-20T10:32:53;1.85;;;0.95;;
70335;SDS011;57756;47.408;18.940;2023-05-20T10:35:24;2.28;;;1.55;;
70335;SDS011;57756;47.408;18.940;2023-05-20T10:37:51;1.83;;;1.30;;
70335;SDS011;57756;47.408;18.940;2023-05-20T10:40:18;2.63;;;1.30;;
70335;SDS011;57756;47.408;18.940;2023-05-20T10:42:45;1.80;;;1.30;;
70335;SDS011;57756;47.408;18.940;2023-05-20T10:45:23;1.02;;;0.77;;
70335;SDS011;57756;47.408;18.940;2023-05-20T10:47:55;2.00;;;1.50;;
70335;SDS011;57756;47.408;18.940;2023-05-20T10:50:32;1.57;;;1.10;;
70335;SDS011;57756;47.408;18.940;2023-05-20T10:53:05;1.83;;;1.10;;
70335;SDS011;57756;47.408;18.940;2023-05-20T10:55:36;1.27;;;0.82;;
70335;SDS011;57756;47.408;18.940;2023-05-20T10:58:02;2.17;;;1.58;;
70335;SDS011;57756;47.408;18.940;2023-05-20T11:00:29;2.88;;;1.63;;
70335;SDS011;57756;47.408;18.940;2023-05-20T11:02:54;1.87;;;1.07;;
70335;SDS011;57756;47.408;18.940;2023-05-20T11:05:20;1.52;;;0.90;;
70335;SDS011;57756;47.408;18.940;2023-05-20T11:07:46;2.40;;;1.30;;
70335;SDS011;57756;47.408;18.940;2023-05-20T11:10:11;1.88;;;1.40;;
70335;SDS011;57756;47.408;18.940;2023-05-20T11:12:37;2.23;;;1.47;;
70335;SDS011;57756;47.408;18.940;2023-05-20T11:15:03;2.33;;;1.50;;
70335;SDS011;57756;47.408;18.940;2023-05-20T11:17:29;3.10;;;1.30;;
70335;SDS011;57756;47.408;18.940;2023-05-20T11:19:55;3.30;;;1.47;;
70335;SDS011;57756;47.408;18.940;2023-05-20T11:22:21;2.25;;;1.45;;
70335;SDS011;57756;47.408;18.940;2023-05-20T11:24:46;2.63;;;1.47;;
70335;SDS011;57756;47.408;18.940;2023-05-20T11:27:12;2.45;;;1.73;;
70335;SDS011;57756;47.408;18.940;2023-05-20T11:29:38;2.47;;;1.47;;
70335;SDS011;57756;47.408;18.940;2023-05-20T11:32:04;2.65;;;1.40;;
70335;SDS011;57756;47.408;18.940;2023-05-20T11:34:35;2.72;;;1.60;;
70335;SDS011;57756;47.408;18.940;2023-05-20T11:37:05;4.22;;;1.75;;
70335;SDS011;57756;47.408;18.940;2023-05-20T11:39:32;3.60;;;1.80;;
70335;SDS011;57756;47.408;18.940;2023-05-20T11:41:58;1.50;;;1.00;;
70335;SDS011;57756;47.408;18.940;2023-05-20T11:44:23;2.13;;;1.30;;
70335;SDS011;57756;47.408;18.940;2023-05-20T11:46:49;2.33;;;1.37;;
70335;SDS011;57756;47.408;18.940;2023-05-20T11:49:15;3.22;;;1.45;;
70335;SDS011;57756;47.408;18.940;2023-05-20T11:51:41;1.70;;;1.02;;
70335;SDS011;57756;47.408;18.940;2023-05-20T11:54:08;1.85;;;1.33;;
70335;SDS011;57756;47.408;18.940;2023-05-20T11:56:35;2.77;;;1.73;;
70335;SDS011;57756;47.408;18.940;2023-05-20T11:59:02;2.75;;;1.70;;
70335;SDS011;57756;47.408;18.940;2023-05-20T12:01:30;1.50;;;0.90;;
70335;SDS011;57756;47.408;18.940;2023-05-20T12:03:58;2.00;;;1.38;;
70335;SDS011;57756;47.408;18.940;2023-05-20T12:06:23;1.30;;;1.00;;
70335;SDS011;57756;47.408;18.940;2023-05-20T12:08:49;2.03;;;1.43;;
70335;SDS011;57756;47.408;18.940;2023-05-20T12:11:15;2.93;;;1.40;;
70335;SDS011;57756;47.408;18.940;2023-05-20T12:13:40;1.45;;;0.88;;
70335;SDS011;57756;47.408;18.940;2023-05-20T12:16:06;1.60;;;1.00;;
70335;SDS011;57756;47.408;18.940;2023-05-20T12:18:32;2.05;;;1.40;;
70335;SDS011;57756;47.408;18.940;2023-05-20T12:20:57;2.13;;;1.80;;
70335;SDS011;57756;47.408;18.940;2023-05-20T12:23:23;1.77;;;1.23;;
70335;SDS011;57756;47.408;18.940;2023-05-20T12:25:49;2.07;;;1.30;;
70335;SDS011;57756;47.408;18.940;2023-05-20T12:28:15;1.88;;;1.48;;
70335;SDS011;57756;47.408;18.940;2023-05-20T12:30:41;1.52;;;1.00;;
70335;SDS011;57756;47.408;18.940;2023-05-20T12:33:07;2.33;;;1.47;;
70335;SDS011;57756;47.408;18.940;2023-05-20T12:38:04;1.67;;;1.10;;
70335;SDS011;57756;47.408;18.940;2023-05-20T12:40:29;2.27;;;1.40;;
70335;SDS011;57756;47.408;18.940;2023-05-20T12:42:55;2.10;;;1.17;;
70335;SDS011;57756;47.408;18.940;2023-05-20T12:45:20;3.17;;;1.43;;
70335;SDS011;57756;47.408;18.940;2023-05-20T12:47:46;2.42;;;1.20;;
70335;SDS011;57756;47.408;18.940;2023-05-20T12:50:12;1.90;;;0.93;;
70335;SDS011;57756;47.408;18.940;2023-05-20T12:52:38;1.23;;;0.77;;
70335;SDS011;57756;47.408;18.940;2023-05-20T12:55:04;1.53;;;1.20;;
70335;SDS011;57756;47.408;18.940;2023-05-20T12:57:37;2.88;;;1.38;;
70335;SDS011;57756;47.408;18.940;2023-05-20T13:00:07;2.92;;;1.23;;
70335;SDS011;57756;47.408;18.940;2023-05-20T13:02:34;2.85;;;1.08;;
70335;SDS011;57756;47.408;18.940;2023-05-20T13:05:00;1.88;;;1.00;;
70335;SDS011;57756;47.408;18.940;2023-05-20T13:07:25;2.43;;;1.17;;
70335;SDS011;57756;47.408;18.940;2023-05-20T13:09:51;1.60;;;1.00;;
70335;SDS011;57756;47.408;18.940;2023-05-20T13:12:17;1.77;;;0.77;;
70335;SDS011;57756;47.408;18.940;2023-05-20T13:14:42;2.70;;;1.30;;
70335;SDS011;57756;47.408;18.940;2023-05-20T13:17:08;2.63;;;1.67;;
70335;SDS011;57756;47.408;18.940;2023-05-20T13:19:33;2.67;;;1.60;;
70335;SDS011;57756;47.408;18.940;2023-05-20T13:21:59;2.47;;;1.20;;
70335;SDS011;57756;47.408;18.940;2023-05-20T13:24:25;1.95;;;1.00;;
70335;SDS011;57756;47.408;18.940;2023-05-20T13:26:51;2.25;;;1.20;;
70335;SDS011;57756;47.408;18.940;2023-05-20T13:29:16;1.40;;;0.90;;
70335;SDS011;57756;47.408;18.940;2023-05-20T13:31:42;2.50;;;1.30;;
70335;SDS011;57756;47.408;18.940;2023-05-20T13:34:07;3.87;;;1.60;;
70335;SDS011;57756;47.408;18.940;2023-05-20T13:36:33;1.90;;;1.05;;
70335;SDS011;57756;47.408;18.940;2023-05-20T13:38:58;1.57;;;1.00;;
70335;SDS011;57756;47.408;18.940;2023-05-20T13:41:24;2.07;;;1.13;;
70335;SDS011;57756;47.408;18.940;2023-05-20T13:43:50;2.05;;;1.02;;
70335;SDS011;57756;47.408;18.940;2023-05-20T13:46:16;2.30;;;1.65;;
70335;SDS011;57756;47.408;18.940;2023-05-20T13:48:42;1.90;;;1.17;;
70335;SDS011;57756;47.408;18.940;2023-05-20T13:51:07;2.27;;;1.00;;
70335;SDS011;57756;47.408;18.940;2023-05-20T13:53:33;1.73;;;1.20;;
70335;SDS011;57756;47.408;18.940;2023-05-20T13:55:58;4.32;;;1.52;;
70335;SDS011;57756;47.408;18.940;2023-05-20T13:58:24;2.13;;;1.13;;
70335;SDS011;57756;47.408;18.940;2023-05-20T14:00:49;3.50;;;1.30;;
70335;SDS011;57756;47.408;18.940;2023-05-20T14:03:16;2.33;;;1.85;;
70335;SDS011;57756;47.408;18.940;2023-05-20T14:05:41;1.90;;;1.10;;
70335;SDS011;57756;47.408;18.940;2023-05-20T14:08:07;2.73;;;1.63;;
70335;SDS011;57756;47.408;18.940;2023-05-20T14:10:32;2.30;;;1.80;;
70335;SDS011;57756;47.408;18.940;2023-05-20T14:12:58;2.72;;;1.92;;
70335;SDS011;57756;47.408;18.940;2023-05-20T14:15:26;2.20;;;1.33;;
70335;SDS011;57756;47.408;18.940;2023-05-20T14:17:54;1.60;;;1.25;;
70335;SDS011;57756;47.408;18.940;2023-05-20T14:20:23;2.20;;;1.23;;
70335;SDS011;57756;47.408;18.940;2023-05-20T14:22:49;1.27;;;0.73;;
70335;SDS011;57756;47.408;18.940;2023-05-20T14:25:16;1.80;;;1.10;;
70335;SDS011;57756;47.408;18.940;2023-05-20T14:27:41;2.10;;;1.50;;
70335;SDS011;57756;47.408;18.940;2023-05-20T14:30:07;1.17;;;0.87;;
70335;SDS011;57756;47.408;18.940;2023-05-20T14:32:33;1.92;;;0.90;;
70335;SDS011;57756;47.408;18.940;2023-05-20T14:34:59;2.10;;;1.43;;
70335;SDS011;57756;47.408;18.940;2023-05-20T14:37:24;2.92;;;0.90;;
70335;SDS011;57756;47.408;18.940;2023-05-20T14:39:51;1.92;;;1.25;;
70335;SDS011;57756;47.408;18.940;2023-05-20T14:42:20;2.33;;;1.25;;